Gearhart, Oregon
Current Conditions -  °F | °C
As of 9:55 PM on Wednesday 28 Jan 2015 (Local Time) from KAST Reporting Station
Clear Clear  
Wind Chill: 46°   Ceiling: Unl
Heat Index: 46°   Visibility: 9mi
Dew Point: 44°   Wind: 0mph
Humidity: 93%   Direction: NA
Pressure: 30.31"   Gusts: NA
Location:  45.8905°N, 123.667°W
Report Text: KAST 290555Z AUTO 00000KT 9SM CLR 08/07 A3031 RMK AO2 VIS 3/4 RWY 08 SLP262 T00780067 10128 20072 51004
Loading
Personal Weather Stations






























Interactive Weather Map New forecast layout! Learn more

10-Day Weather Forecast

Advertisements
Track Severe Weather on mobile